sensor_id;sensor_type;location;lat;lon;timestamp;P1;durP1;ratioP1;P2;durP2;ratioP2
315;SDS011;14128;48.686;9.738;2022-09-11T00:01:39;4.33;;;2.20;;
315;SDS011;14128;48.686;9.738;2022-09-11T00:04:08;3.90;;;1.60;;
315;SDS011;14128;48.686;9.738;2022-09-11T00:06:35;3.70;;;1.37;;
315;SDS011;14128;48.686;9.738;2022-09-11T00:09:03;1.90;;;1.23;;
315;SDS011;14128;48.686;9.738;2022-09-11T00:11:32;2.50;;;1.47;;
315;SDS011;14128;48.686;9.738;2022-09-11T00:14:00;4.90;;;1.80;;
315;SDS011;14128;48.686;9.738;2022-09-11T00:16:30;3.33;;;2.40;;
315;SDS011;14128;48.686;9.738;2022-09-11T00:19:00;3.60;;;1.87;;
315;SDS011;14128;48.686;9.738;2022-09-11T00:21:29;1.73;;;1.37;;
315;SDS011;14128;48.686;9.738;2022-09-11T00:23:56;2.63;;;1.73;;
315;SDS011;14128;48.686;9.738;2022-09-11T00:26:23;1.90;;;1.80;;
315;SDS011;14128;48.686;9.738;2022-09-11T00:28:51;1.40;;;1.30;;
315;SDS011;14128;48.686;9.738;2022-09-11T00:31:18;4.83;;;1.53;;
315;SDS011;14128;48.686;9.738;2022-09-11T00:33:49;2.70;;;1.47;;
315;SDS011;14128;48.686;9.738;2022-09-11T00:36:17;4.43;;;1.37;;
315;SDS011;14128;48.686;9.738;2022-09-11T00:38:45;3.83;;;1.63;;
315;SDS011;14128;48.686;9.738;2022-09-11T00:41:14;3.10;;;1.30;;
315;SDS011;14128;48.686;9.738;2022-09-11T00:43:50;3.33;;;1.37;;
315;SDS011;14128;48.686;9.738;2022-09-11T00:46:23;2.53;;;1.50;;
315;SDS011;14128;48.686;9.738;2022-09-11T00:48:56;4.60;;;1.50;;
315;SDS011;14128;48.686;9.738;2022-09-11T00:51:28;2.70;;;1.70;;
315;SDS011;14128;48.686;9.738;2022-09-11T00:53:58;6.03;;;1.60;;
315;SDS011;14128;48.686;9.738;2022-09-11T00:56:28;2.87;;;1.13;;
315;SDS011;14128;48.686;9.738;2022-09-11T00:58:59;1.93;;;0.80;;
315;SDS011;14128;48.686;9.738;2022-09-11T01:01:26;1.27;;;0.93;;
315;SDS011;14128;48.686;9.738;2022-09-11T01:03:53;1.13;;;0.97;;
315;SDS011;14128;48.686;9.738;2022-09-11T01:06:21;3.40;;;1.60;;
315;SDS011;14128;48.686;9.738;2022-09-11T01:08:49;2.23;;;1.00;;
315;SDS011;14128;48.686;9.738;2022-09-11T01:11:23;2.50;;;1.47;;
315;SDS011;14128;48.686;9.738;2022-09-11T01:14:00;1.43;;;1.03;;
315;SDS011;14128;48.686;9.738;2022-09-11T01:16:36;1.90;;;1.10;;
315;SDS011;14128;48.686;9.738;2022-09-11T01:19:12;2.47;;;1.10;;
315;SDS011;14128;48.686;9.738;2022-09-11T01:21:54;1.60;;;1.20;;
315;SDS011;14128;48.686;9.738;2022-09-11T01:24:52;2.80;;;1.73;;
315;SDS011;14128;48.686;9.738;2022-09-11T01:30:09;2.70;;;1.53;;
315;SDS011;14128;48.686;9.738;2022-09-11T01:32:43;2.57;;;1.13;;
315;SDS011;14128;48.686;9.738;2022-09-11T01:35:27;3.70;;;1.50;;
315;SDS011;14128;48.686;9.738;2022-09-11T01:38:06;1.63;;;1.43;;
315;SDS011;14128;48.686;9.738;2022-09-11T01:40:37;2.17;;;0.80;;
315;SDS011;14128;48.686;9.738;2022-09-11T01:43:11;4.50;;;1.17;;
315;SDS011;14128;48.686;9.738;2022-09-11T01:45:43;2.13;;;1.60;;
315;SDS011;14128;48.686;9.738;2022-09-11T01:48:12;2.13;;;1.70;;
315;SDS011;14128;48.686;9.738;2022-09-11T01:50:43;3.40;;;1.13;;
315;SDS011;14128;48.686;9.738;2022-09-11T01:53:14;2.70;;;1.50;;
315;SDS011;14128;48.686;9.738;2022-09-11T01:55:47;2.57;;;1.03;;
315;SDS011;14128;48.686;9.738;2022-09-11T01:58:21;1.50;;;0.97;;
315;SDS011;14128;48.686;9.738;2022-09-11T02:00:52;2.57;;;2.13;;
315;SDS011;14128;48.686;9.738;2022-09-11T02:03:24;1.90;;;0.90;;
315;SDS011;14128;48.686;9.738;2022-09-11T02:05:56;2.60;;;1.10;;
315;SDS011;14128;48.686;9.738;2022-09-11T02:08:26;1.40;;;1.23;;
315;SDS011;14128;48.686;9.738;2022-09-11T02:10:57;1.67;;;1.13;;
315;SDS011;14128;48.686;9.738;2022-09-11T02:13:31;2.07;;;1.13;;
315;SDS011;14128;48.686;9.738;2022-09-11T02:16:03;1.70;;;1.50;;
315;SDS011;14128;48.686;9.738;2022-09-11T02:18:39;3.30;;;1.13;;
315;SDS011;14128;48.686;9.738;2022-09-11T02:21:09;2.03;;;1.07;;
315;SDS011;14128;48.686;9.738;2022-09-11T02:23:36;1.90;;;1.33;;
315;SDS011;14128;48.686;9.738;2022-09-11T02:26:03;4.77;;;1.50;;
315;SDS011;14128;48.686;9.738;2022-09-11T02:28:34;3.50;;;1.17;;
315;SDS011;14128;48.686;9.738;2022-09-11T02:31:02;1.80;;;1.10;;
315;SDS011;14128;48.686;9.738;2022-09-11T02:33:30;4.57;;;1.50;;
315;SDS011;14128;48.686;9.738;2022-09-11T02:36:02;2.57;;;1.37;;
315;SDS011;14128;48.686;9.738;2022-09-11T02:38:40;1.73;;;1.27;;
315;SDS011;14128;48.686;9.738;2022-09-11T02:41:17;2.30;;;1.43;;
315;SDS011;14128;48.686;9.738;2022-09-11T02:43:52;1.53;;;1.47;;
315;SDS011;14128;48.686;9.738;2022-09-11T02:46:33;1.23;;;1.13;;
315;SDS011;14128;48.686;9.738;2022-09-11T02:49:18;2.20;;;1.40;;
315;SDS011;14128;48.686;9.738;2022-09-11T02:51:51;3.90;;;2.17;;
315;SDS011;14128;48.686;9.738;2022-09-11T02:54:27;1.70;;;1.23;;
315;SDS011;14128;48.686;9.738;2022-09-11T02:57:00;2.03;;;1.43;;
315;SDS011;14128;48.686;9.738;2022-09-11T02:59:34;2.23;;;1.10;;
315;SDS011;14128;48.686;9.738;2022-09-11T03:02:06;3.40;;;1.63;;
315;SDS011;14128;48.686;9.738;2022-09-11T03:04:36;3.37;;;1.80;;
315;SDS011;14128;48.686;9.738;2022-09-11T03:07:03;1.87;;;1.20;;
315;SDS011;14128;48.686;9.738;2022-09-11T03:09:30;1.53;;;1.47;;
315;SDS011;14128;48.686;9.738;2022-09-11T03:11:59;5.27;;;2.70;;
315;SDS011;14128;48.686;9.738;2022-09-11T03:14:25;4.10;;;1.37;;
315;SDS011;14128;48.686;9.738;2022-09-11T03:16:54;1.90;;;1.50;;
315;SDS011;14128;48.686;9.738;2022-09-11T03:19:21;3.77;;;2.13;;
315;SDS011;14128;48.686;9.738;2022-09-11T03:21:47;3.17;;;2.00;;
315;SDS011;14128;48.686;9.738;2022-09-11T03:24:15;2.60;;;1.57;;
315;SDS011;14128;48.686;9.738;2022-09-11T03:26:41;2.03;;;1.53;;
315;SDS011;14128;48.686;9.738;2022-09-11T03:29:08;1.90;;;1.50;;
315;SDS011;14128;48.686;9.738;2022-09-11T03:31:35;3.30;;;2.00;;
315;SDS011;14128;48.686;9.738;2022-09-11T03:34:03;5.43;;;1.70;;
315;SDS011;14128;48.686;9.738;2022-09-11T03:36:31;5.57;;;1.80;;
315;SDS011;14128;48.686;9.738;2022-09-11T03:38:58;2.50;;;1.47;;
315;SDS011;14128;48.686;9.738;2022-09-11T03:41:25;1.50;;;1.40;;
315;SDS011;14128;48.686;9.738;2022-09-11T03:43:52;1.83;;;1.50;;
315;SDS011;14128;48.686;9.738;2022-09-11T03:46:19;2.57;;;1.90;;
315;SDS011;14128;48.686;9.738;2022-09-11T03:48:46;4.00;;;1.43;;
315;SDS011;14128;48.686;9.738;2022-09-11T03:51:14;2.90;;;1.00;;
315;SDS011;14128;48.686;9.738;2022-09-11T03:53:41;2.60;;;1.40;;
315;SDS011;14128;48.686;9.738;2022-09-11T03:56:08;3.27;;;1.73;;
315;SDS011;14128;48.686;9.738;2022-09-11T03:58:35;2.70;;;1.80;;
315;SDS011;14128;48.686;9.738;2022-09-11T04:01:06;2.47;;;1.67;;
315;SDS011;14128;48.686;9.738;2022-09-11T04:03:33;2.00;;;1.67;;
315;SDS011;14128;48.686;9.738;2022-09-11T04:06:00;2.40;;;1.87;;
315;SDS011;14128;48.686;9.738;2022-09-11T04:08:29;5.23;;;2.20;;
315;SDS011;14128;48.686;9.738;2022-09-11T04:10:57;3.37;;;1.93;;
315;SDS011;14128;48.686;9.738;2022-09-11T04:13:26;4.00;;;1.43;;
315;SDS011;14128;48.686;9.738;2022-09-11T04:15:56;8.60;;;2.80;;
315;SDS011;14128;48.686;9.738;2022-09-11T04:18:24;3.53;;;1.50;;
315;SDS011;14128;48.686;9.738;2022-09-11T04:20:51;1.93;;;1.20;;
315;SDS011;14128;48.686;9.738;2022-09-11T04:23:17;1.50;;;1.40;;
315;SDS011;14128;48.686;9.738;2022-09-11T04:25:45;4.43;;;1.97;;
315;SDS011;14128;48.686;9.738;2022-09-11T04:28:12;6.80;;;2.17;;
315;SDS011;14128;48.686;9.738;2022-09-11T04:30:39;4.60;;;1.73;;
315;SDS011;14128;48.686;9.738;2022-09-11T04:33:06;4.37;;;1.83;;
315;SDS011;14128;48.686;9.738;2022-09-11T04:35:35;2.00;;;1.90;;
315;SDS011;14128;48.686;9.738;2022-09-11T04:38:03;3.70;;;1.47;;
315;SDS011;14128;48.686;9.738;2022-09-11T04:40:30;2.30;;;1.90;;
315;SDS011;14128;48.686;9.738;2022-09-11T04:42:59;2.40;;;1.80;;
315;SDS011;14128;48.686;9.738;2022-09-11T04:45:26;3.30;;;3.03;;
315;SDS011;14128;48.686;9.738;2022-09-11T04:47:57;4.00;;;1.90;;
315;SDS011;14128;48.686;9.738;2022-09-11T04:50:24;3.30;;;1.63;;
315;SDS011;14128;48.686;9.738;2022-09-11T04:52:52;3.43;;;2.47;;
315;SDS011;14128;48.686;9.738;2022-09-11T04:55:19;3.47;;;2.50;;
315;SDS011;14128;48.686;9.738;2022-09-11T04:57:46;3.63;;;1.97;;
315;SDS011;14128;48.686;9.738;2022-09-11T05:00:14;3.40;;;2.20;;
315;SDS011;14128;48.686;9.738;2022-09-11T05:02:41;3.10;;;1.90;;
315;SDS011;14128;48.686;9.738;2022-09-11T05:05:08;2.53;;;2.30;;
315;SDS011;14128;48.686;9.738;2022-09-11T05:07:35;3.00;;;2.17;;
315;SDS011;14128;48.686;9.738;2022-09-11T05:10:02;2.20;;;2.00;;
315;SDS011;14128;48.686;9.738;2022-09-11T05:12:30;5.10;;;2.60;;
315;SDS011;14128;48.686;9.738;2022-09-11T05:14:56;1.77;;;1.67;;
315;SDS011;14128;48.686;9.738;2022-09-11T05:17:25;2.97;;;2.00;;
315;SDS011;14128;48.686;9.738;2022-09-11T05:19:52;4.97;;;2.53;;
315;SDS011;14128;48.686;9.738;2022-09-11T05:22:19;3.00;;;1.73;;
315;SDS011;14128;48.686;9.738;2022-09-11T05:24:47;6.50;;;2.70;;
315;SDS011;14128;48.686;9.738;2022-09-11T05:27:14;3.40;;;2.33;;
315;SDS011;14128;48.686;9.738;2022-09-11T05:29:40;2.37;;;1.90;;
315;SDS011;14128;48.686;9.738;2022-09-11T05:32:08;2.30;;;2.10;;
315;SDS011;14128;48.686;9.738;2022-09-11T05:34:36;3.57;;;2.13;;
315;SDS011;14128;48.686;9.738;2022-09-11T05:37:03;2.67;;;2.47;;
315;SDS011;14128;48.686;9.738;2022-09-11T05:39:29;2.73;;;2.53;;
315;SDS011;14128;48.686;9.738;2022-09-11T05:41:56;4.37;;;2.17;;
315;SDS011;14128;48.686;9.738;2022-09-11T05:44:23;4.80;;;2.50;;
315;SDS011;14128;48.686;9.738;2022-09-11T05:46:50;3.90;;;2.60;;
315;SDS011;14128;48.686;9.738;2022-09-11T05:49:17;4.20;;;2.90;;
315;SDS011;14128;48.686;9.738;2022-09-11T05:51:47;3.10;;;2.90;;
315;SDS011;14128;48.686;9.738;2022-09-11T05:54:13;3.70;;;2.40;;
315;SDS011;14128;48.686;9.738;2022-09-11T05:56:40;3.40;;;2.13;;
315;SDS011;14128;48.686;9.738;2022-09-11T05:59:09;3.70;;;2.60;;
315;SDS011;14128;48.686;9.738;2022-09-11T06:01:38;6.30;;;3.47;;
315;SDS011;14128;48.686;9.738;2022-09-11T06:04:08;2.87;;;2.30;;
315;SDS011;14128;48.686;9.738;2022-09-11T06:06:36;4.07;;;2.70;;
315;SDS011;14128;48.686;9.738;2022-09-11T06:09:04;2.77;;;2.50;;
315;SDS011;14128;48.686;9.738;2022-09-11T06:11:31;4.17;;;2.87;;
315;SDS011;14128;48.686;9.738;2022-09-11T06:13:58;6.87;;;3.67;;
315;SDS011;14128;48.686;9.738;2022-09-11T06:16:25;4.40;;;2.53;;
315;SDS011;14128;48.686;9.738;2022-09-11T06:18:53;3.83;;;2.63;;
315;SDS011;14128;48.686;9.738;2022-09-11T06:21:20;7.10;;;6.03;;
315;SDS011;14128;48.686;9.738;2022-09-11T06:23:48;3.70;;;3.50;;
315;SDS011;14128;48.686;9.738;2022-09-11T06:26:18;2.80;;;2.60;;
315;SDS011;14128;48.686;9.738;2022-09-11T06:28:47;3.80;;;3.30;;
315;SDS011;14128;48.686;9.738;2022-09-11T06:31:15;3.90;;;3.53;;
315;SDS011;14128;48.686;9.738;2022-09-11T06:33:44;5.13;;;3.07;;
315;SDS011;14128;48.686;9.738;2022-09-11T06:36:12;5.30;;;2.63;;
315;SDS011;14128;48.686;9.738;2022-09-11T06:38:40;5.73;;;4.10;;
315;SDS011;14128;48.686;9.738;2022-09-11T06:41:09;3.30;;;3.10;;
315;SDS011;14128;48.686;9.738;2022-09-11T06:43:39;4.30;;;3.90;;
315;SDS011;14128;48.686;9.738;2022-09-11T06:46:06;4.40;;;3.87;;
315;SDS011;14128;48.686;9.738;2022-09-11T06:48:36;4.63;;;4.33;;
315;SDS011;14128;48.686;9.738;2022-09-11T06:51:03;4.87;;;3.70;;
315;SDS011;14128;48.686;9.738;2022-09-11T06:53:31;14.00;;;4.80;;
315;SDS011;14128;48.686;9.738;2022-09-11T06:55:58;4.20;;;3.23;;
315;SDS011;14128;48.686;9.738;2022-09-11T06:58:26;4.50;;;3.73;;
315;SDS011;14128;48.686;9.738;2022-09-11T07:00:55;5.00;;;4.07;;
315;SDS011;14128;48.686;9.738;2022-09-11T07:03:27;6.63;;;3.90;;
315;SDS011;14128;48.686;9.738;2022-09-11T07:05:54;4.70;;;4.30;;
315;SDS011;14128;48.686;9.738;2022-09-11T07:08:21;4.60;;;4.03;;
315;SDS011;14128;48.686;9.738;2022-09-11T07:10:47;3.97;;;3.77;;
315;SDS011;14128;48.686;9.738;2022-09-11T07:13:14;6.17;;;4.80;;
315;SDS011;14128;48.686;9.738;2022-09-11T07:15:41;5.53;;;4.10;;
315;SDS011;14128;48.686;9.738;2022-09-11T07:18:09;5.47;;;4.13;;
315;SDS011;14128;48.686;9.738;2022-09-11T07:20:37;3.70;;;3.50;;
315;SDS011;14128;48.686;9.738;2022-09-11T07:23:05;4.10;;;3.90;;
315;SDS011;14128;48.686;9.738;2022-09-11T07:25:33;6.30;;;4.77;;
315;SDS011;14128;48.686;9.738;2022-09-11T07:28:02;4.20;;;3.57;;
315;SDS011;14128;48.686;9.738;2022-09-11T07:30:29;4.23;;;3.60;;
315;SDS011;14128;48.686;9.738;2022-09-11T07:32:57;4.70;;;3.50;;
315;SDS011;14128;48.686;9.738;2022-09-11T07:35:25;4.40;;;4.10;;
315;SDS011;14128;48.686;9.738;2022-09-11T07:37:52;4.10;;;3.90;;
315;SDS011;14128;48.686;9.738;2022-09-11T07:40:19;3.47;;;3.20;;
315;SDS011;14128;48.686;9.738;2022-09-11T07:42:45;4.97;;;4.03;;
315;SDS011;14128;48.686;9.738;2022-09-11T07:45:12;5.03;;;4.60;;
315;SDS011;14128;48.686;9.738;2022-09-11T07:47:39;5.23;;;4.27;;
315;SDS011;14128;48.686;9.738;2022-09-11T07:50:06;5.67;;;3.90;;
315;SDS011;14128;48.686;9.738;2022-09-11T07:52:35;5.30;;;4.20;;
315;SDS011;14128;48.686;9.738;2022-09-11T07:55:02;6.80;;;4.47;;
315;SDS011;14128;48.686;9.738;2022-09-11T07:57:29;4.23;;;4.00;;
315;SDS011;14128;48.686;9.738;2022-09-11T07:59:56;4.80;;;4.50;;
315;SDS011;14128;48.686;9.738;2022-09-11T08:02:24;6.70;;;4.37;;
315;SDS011;14128;48.686;9.738;2022-09-11T08:04:51;4.43;;;4.13;;
315;SDS011;14128;48.686;9.738;2022-09-11T08:07:18;5.27;;;4.43;;
315;SDS011;14128;48.686;9.738;2022-09-11T08:09:48;4.27;;;4.00;;
315;SDS011;14128;48.686;9.738;2022-09-11T08:12:15;5.13;;;4.87;;
315;SDS011;14128;48.686;9.738;2022-09-11T08:14:43;6.17;;;5.37;;
315;SDS011;14128;48.686;9.738;2022-09-11T08:17:11;5.83;;;5.57;;
315;SDS011;14128;48.686;9.738;2022-09-11T08:19:37;5.30;;;4.80;;
315;SDS011;14128;48.686;9.738;2022-09-11T08:22:04;5.90;;;5.60;;
315;SDS011;14128;48.686;9.738;2022-09-11T08:24:31;5.63;;;5.33;;
315;SDS011;14128;48.686;9.738;2022-09-11T08:26:59;5.10;;;4.80;;
315;SDS011;14128;48.686;9.738;2022-09-11T08:29:29;8.60;;;6.10;;
315;SDS011;14128;48.686;9.738;2022-09-11T08:31:56;7.60;;;5.60;;
315;SDS011;14128;48.686;9.738;2022-09-11T08:34:22;7.43;;;5.73;;
315;SDS011;14128;48.686;9.738;2022-09-11T08:36:49;7.07;;;6.30;;
315;SDS011;14128;48.686;9.738;2022-09-11T08:39:16;8.57;;;5.70;;
315;SDS011;14128;48.686;9.738;2022-09-11T08:41:44;6.73;;;6.33;;
315;SDS011;14128;48.686;9.738;2022-09-11T08:44:20;6.70;;;5.93;;
315;SDS011;14128;48.686;9.738;2022-09-11T08:46:50;9.83;;;7.13;;
315;SDS011;14128;48.686;9.738;2022-09-11T08:49:23;5.80;;;5.50;;
315;SDS011;14128;48.686;9.738;2022-09-11T08:51:52;5.20;;;4.90;;
315;SDS011;14128;48.686;9.738;2022-09-11T08:54:25;7.73;;;5.43;;
315;SDS011;14128;48.686;9.738;2022-09-11T08:56:54;4.70;;;4.43;;
315;SDS011;14128;48.686;9.738;2022-09-11T08:59:35;6.77;;;6.37;;
315;SDS011;14128;48.686;9.738;2022-09-11T09:02:14;7.17;;;5.67;;
315;SDS011;14128;48.686;9.738;2022-09-11T09:04:57;5.27;;;4.63;;
315;SDS011;14128;48.686;9.738;2022-09-11T09:07:40;7.07;;;4.97;;
315;SDS011;14128;48.686;9.738;2022-09-11T09:10:19;7.53;;;6.33;;
315;SDS011;14128;48.686;9.738;2022-09-11T09:12:54;6.20;;;5.80;;
315;SDS011;14128;48.686;9.738;2022-09-11T09:15:31;6.13;;;5.83;;
315;SDS011;14128;48.686;9.738;2022-09-11T09:18:07;6.90;;;5.97;;
315;SDS011;14128;48.686;9.738;2022-09-11T09:20:39;5.67;;;5.37;;
315;SDS011;14128;48.686;9.738;2022-09-11T09:23:11;6.77;;;6.13;;
315;SDS011;14128;48.686;9.738;2022-09-11T09:25:43;6.43;;;6.00;;
315;SDS011;14128;48.686;9.738;2022-09-11T09:28:15;6.27;;;5.53;;
315;SDS011;14128;48.686;9.738;2022-09-11T09:30:48;6.47;;;6.10;;
315;SDS011;14128;48.686;9.738;2022-09-11T09:33:25;6.27;;;5.93;;
315;SDS011;14128;48.686;9.738;2022-09-11T09:35:56;7.50;;;6.00;;
315;SDS011;14128;48.686;9.738;2022-09-11T09:38:25;7.23;;;5.70;;
315;SDS011;14128;48.686;9.738;2022-09-11T09:41:04;14.13;;;5.30;;
315;SDS011;14128;48.686;9.738;2022-09-11T09:43:41;6.33;;;4.43;;
315;SDS011;14128;48.686;9.738;2022-09-11T09:46:16;5.33;;;5.03;;
315;SDS011;14128;48.686;9.738;2022-09-11T09:48:47;7.70;;;5.63;;
315;SDS011;14128;48.686;9.738;2022-09-11T09:51:16;6.37;;;6.00;;
315;SDS011;14128;48.686;9.738;2022-09-11T09:53:43;5.43;;;5.13;;
315;SDS011;14128;48.686;9.738;2022-09-11T09:56:14;6.10;;;5.80;;
315;SDS011;14128;48.686;9.738;2022-09-11T09:58:47;5.40;;;5.10;;
315;SDS011;14128;48.686;9.738;2022-09-11T10:04:12;6.87;;;6.33;;
315;SDS011;14128;48.686;9.738;2022-09-11T10:06:41;5.87;;;5.60;;
315;SDS011;14128;48.686;9.738;2022-09-11T10:09:20;7.50;;;6.53;;
315;SDS011;14128;48.686;9.738;2022-09-11T10:11:52;7.20;;;6.80;;
315;SDS011;14128;48.686;9.738;2022-09-11T10:14:21;5.40;;;5.10;;
315;SDS011;14128;48.686;9.738;2022-09-11T10:16:51;6.23;;;5.27;;
315;SDS011;14128;48.686;9.738;2022-09-11T10:19:35;5.63;;;5.20;;
315;SDS011;14128;48.686;9.738;2022-09-11T10:22:20;5.57;;;5.27;;
315;SDS011;14128;48.686;9.738;2022-09-11T10:24:57;5.30;;;5.00;;
315;SDS011;14128;48.686;9.738;2022-09-11T10:27:31;7.20;;;5.83;;
315;SDS011;14128;48.686;9.738;2022-09-11T10:30:03;5.57;;;5.27;;
315;SDS011;14128;48.686;9.738;2022-09-11T10:32:32;5.40;;;5.10;;
315;SDS011;14128;48.686;9.738;2022-09-11T10:35:07;10.33;;;5.30;;
315;SDS011;14128;48.686;9.738;2022-09-11T10:37:35;8.23;;;5.53;;
315;SDS011;14128;48.686;9.738;2022-09-11T10:40:04;5.80;;;5.50;;
315;SDS011;14128;48.686;9.738;2022-09-11T10:42:33;5.47;;;5.17;;
315;SDS011;14128;48.686;9.738;2022-09-11T10:45:05;5.67;;;5.10;;
315;SDS011;14128;48.686;9.738;2022-09-11T10:47:35;5.90;;;5.20;;
315;SDS011;14128;48.686;9.738;2022-09-11T10:50:18;4.33;;;4.03;;
315;SDS011;14128;48.686;9.738;2022-09-11T10:52:49;5.87;;;4.60;;
315;SDS011;14128;48.686;9.738;2022-09-11T10:55:26;5.50;;;4.73;;
315;SDS011;14128;48.686;9.738;2022-09-11T10:57:58;4.13;;;3.90;;
315;SDS011;14128;48.686;9.738;2022-09-11T11:00:32;4.70;;;4.40;;
315;SDS011;14128;48.686;9.738;2022-09-11T11:03:02;5.63;;;5.03;;
315;SDS011;14128;48.686;9.738;2022-09-11T11:05:35;4.63;;;4.33;;
315;SDS011;14128;48.686;9.738;2022-09-11T11:11:17;4.93;;;4.67;;
315;SDS011;14128;48.686;9.738;2022-09-11T11:13:59;3.47;;;3.33;;
315;SDS011;14128;48.686;9.738;2022-09-11T11:16:39;3.80;;;3.60;;
315;SDS011;14128;48.686;9.738;2022-09-11T11:19:24;5.13;;;4.83;;
315;SDS011;14128;48.686;9.738;2022-09-11T11:22:07;5.07;;;4.30;;
315;SDS011;14128;48.686;9.738;2022-09-11T11:24:48;4.90;;;4.60;;
315;SDS011;14128;48.686;9.738;2022-09-11T11:30:18;3.73;;;3.57;;
315;SDS011;14128;48.686;9.738;2022-09-11T11:32:56;4.37;;;4.10;;
315;SDS011;14128;48.686;9.738;2022-09-11T11:35:47;5.30;;;3.60;;
315;SDS011;14128;48.686;9.738;2022-09-11T11:38:25;4.33;;;3.70;;
315;SDS011;14128;48.686;9.738;2022-09-11T11:40:57;4.83;;;4.53;;
315;SDS011;14128;48.686;9.738;2022-09-11T11:43:30;4.90;;;4.00;;
315;SDS011;14128;48.686;9.738;2022-09-11T11:46:00;3.80;;;3.60;;
315;SDS011;14128;48.686;9.738;2022-09-11T11:48:35;3.97;;;3.40;;
315;SDS011;14128;48.686;9.738;2022-09-11T11:51:08;3.37;;;3.17;;
315;SDS011;14128;48.686;9.738;2022-09-11T11:53:41;3.43;;;3.23;;
315;SDS011;14128;48.686;9.738;2022-09-11T11:56:13;3.67;;;3.47;;
315;SDS011;14128;48.686;9.738;2022-09-11T11:58:50;3.20;;;3.00;;
315;SDS011;14128;48.686;9.738;2022-09-11T12:01:23;3.93;;;3.73;;
315;SDS011;14128;48.686;9.738;2022-09-11T12:03:58;4.30;;;3.53;;
315;SDS011;14128;48.686;9.738;2022-09-11T12:06:31;4.33;;;4.10;;
315;SDS011;14128;48.686;9.738;2022-09-11T12:08:58;4.67;;;4.40;;
315;SDS011;14128;48.686;9.738;2022-09-11T12:11:26;3.27;;;3.07;;
315;SDS011;14128;48.686;9.738;2022-09-11T12:13:55;3.70;;;3.50;;
315;SDS011;14128;48.686;9.738;2022-09-11T12:16:24;4.93;;;4.53;;
315;SDS011;14128;48.686;9.738;2022-09-11T12:19:02;4.23;;;3.97;;
315;SDS011;14128;48.686;9.738;2022-09-11T12:21:33;3.90;;;3.00;;
315;SDS011;14128;48.686;9.738;2022-09-11T12:24:14;2.90;;;2.70;;
315;SDS011;14128;48.686;9.738;2022-09-11T12:26:42;2.57;;;2.40;;
315;SDS011;14128;48.686;9.738;2022-09-11T12:32:25;3.67;;;3.47;;
315;SDS011;14128;48.686;9.738;2022-09-11T12:35:13;3.87;;;3.67;;
315;SDS011;14128;48.686;9.738;2022-09-11T12:37:58;3.17;;;3.00;;
315;SDS011;14128;48.686;9.738;2022-09-11T12:40:35;3.20;;;2.97;;
315;SDS011;14128;48.686;9.738;2022-09-11T12:43:13;4.00;;;3.80;;
315;SDS011;14128;48.686;9.738;2022-09-11T12:45:51;3.63;;;3.43;;
315;SDS011;14128;48.686;9.738;2022-09-11T12:48:18;3.30;;;2.83;;
315;SDS011;14128;48.686;9.738;2022-09-11T12:50:48;5.20;;;4.27;;
315;SDS011;14128;48.686;9.738;2022-09-11T12:53:21;6.03;;;4.50;;
315;SDS011;14128;48.686;9.738;2022-09-11T12:55:52;2.60;;;2.30;;
315;SDS011;14128;48.686;9.738;2022-09-11T12:58:27;3.67;;;3.47;;
315;SDS011;14128;48.686;9.738;2022-09-11T13:03:47;3.43;;;3.23;;
315;SDS011;14128;48.686;9.738;2022-09-11T13:06:21;4.93;;;3.93;;
315;SDS011;14128;48.686;9.738;2022-09-11T13:08:53;4.10;;;3.90;;
315;SDS011;14128;48.686;9.738;2022-09-11T13:11:37;3.27;;;3.07;;
315;SDS011;14128;48.686;9.738;2022-09-11T13:17:11;3.70;;;3.50;;
315;SDS011;14128;48.686;9.738;2022-09-11T13:19:39;4.33;;;3.83;;
315;SDS011;14128;48.686;9.738;2022-09-11T13:22:18;2.97;;;2.77;;
315;SDS011;14128;48.686;9.738;2022-09-11T13:24:48;3.77;;;3.27;;
315;SDS011;14128;48.686;9.738;2022-09-11T13:27:16;6.37;;;3.93;;
315;SDS011;14128;48.686;9.738;2022-09-11T13:29:50;3.70;;;3.50;;
315;SDS011;14128;48.686;9.738;2022-09-11T13:32:19;3.87;;;3.67;;
315;SDS011;14128;48.686;9.738;2022-09-11T13:34:47;3.07;;;2.87;;
315;SDS011;14128;48.686;9.738;2022-09-11T13:37:25;3.00;;;2.80;;
315;SDS011;14128;48.686;9.738;2022-09-11T13:40:02;4.00;;;3.40;;
315;SDS011;14128;48.686;9.738;2022-09-11T13:42:31;2.83;;;2.63;;
315;SDS011;14128;48.686;9.738;2022-09-11T13:44:59;3.40;;;3.20;;
315;SDS011;14128;48.686;9.738;2022-09-11T13:47:28;5.03;;;3.27;;
315;SDS011;14128;48.686;9.738;2022-09-11T13:49:56;3.90;;;2.70;;
315;SDS011;14128;48.686;9.738;2022-09-11T13:52:27;3.03;;;2.83;;
315;SDS011;14128;48.686;9.738;2022-09-11T13:54:57;2.90;;;2.70;;
315;SDS011;14128;48.686;9.738;2022-09-11T13:57:28;3.33;;;3.13;;
315;SDS011;14128;48.686;9.738;2022-09-11T13:59:56;3.27;;;3.07;;
315;SDS011;14128;48.686;9.738;2022-09-11T14:02:27;3.30;;;3.10;;
315;SDS011;14128;48.686;9.738;2022-09-11T14:05:16;2.97;;;2.77;;
315;SDS011;14128;48.686;9.738;2022-09-11T14:07:51;3.30;;;3.10;;
315;SDS011;14128;48.686;9.738;2022-09-11T14:10:23;3.23;;;3.03;;
315;SDS011;14128;48.686;9.738;2022-09-11T14:12:56;2.83;;;2.63;;
315;SDS011;14128;48.686;9.738;2022-09-11T14:15:32;3.70;;;3.50;;
315;SDS011;14128;48.686;9.738;2022-09-11T14:18:04;3.00;;;2.80;;
315;SDS011;14128;48.686;9.738;2022-09-11T14:20:35;3.53;;;3.30;;
315;SDS011;14128;48.686;9.738;2022-09-11T14:23:06;3.07;;;2.87;;
315;SDS011;14128;48.686;9.738;2022-09-11T14:25:33;3.70;;;3.50;;
315;SDS011;14128;48.686;9.738;2022-09-11T14:28:02;3.07;;;2.87;;
315;SDS011;14128;48.686;9.738;2022-09-11T14:30:33;3.30;;;3.10;;
315;SDS011;14128;48.686;9.738;2022-09-11T14:33:12;4.00;;;2.77;;
315;SDS011;14128;48.686;9.738;2022-09-11T14:35:41;4.50;;;3.23;;
315;SDS011;14128;48.686;9.738;2022-09-11T14:38:10;3.33;;;3.13;;
315;SDS011;14128;48.686;9.738;2022-09-11T14:40:41;3.77;;;3.20;;
315;SDS011;14128;48.686;9.738;2022-09-11T14:43:15;3.00;;;2.80;;
315;SDS011;14128;48.686;9.738;2022-09-11T14:45:46;4.00;;;3.80;;
315;SDS011;14128;48.686;9.738;2022-09-11T14:48:16;3.90;;;3.70;;
315;SDS011;14128;48.686;9.738;2022-09-11T14:50:43;3.50;;;3.30;;
315;SDS011;14128;48.686;9.738;2022-09-11T14:53:12;6.23;;;3.67;;
315;SDS011;14128;48.686;9.738;2022-09-11T14:55:43;4.50;;;4.20;;
315;SDS011;14128;48.686;9.738;2022-09-11T14:58:11;3.93;;;3.73;;
315;SDS011;14128;48.686;9.738;2022-09-11T15:00:39;4.60;;;4.30;;
315;SDS011;14128;48.686;9.738;2022-09-11T15:03:06;5.00;;;4.70;;
315;SDS011;14128;48.686;9.738;2022-09-11T15:05:33;5.23;;;4.30;;
315;SDS011;14128;48.686;9.738;2022-09-11T15:08:00;5.10;;;4.80;;
315;SDS011;14128;48.686;9.738;2022-09-11T15:10:27;4.47;;;4.17;;
315;SDS011;14128;48.686;9.738;2022-09-11T15:12:57;5.43;;;4.93;;
315;SDS011;14128;48.686;9.738;2022-09-11T15:15:24;5.30;;;5.03;;
315;SDS011;14128;48.686;9.738;2022-09-11T15:17:52;5.80;;;5.50;;
315;SDS011;14128;48.686;9.738;2022-09-11T15:20:20;4.60;;;4.30;;
315;SDS011;14128;48.686;9.738;2022-09-11T15:22:48;4.30;;;4.00;;
315;SDS011;14128;48.686;9.738;2022-09-11T15:25:15;6.10;;;4.90;;
315;SDS011;14128;48.686;9.738;2022-09-11T15:27:42;4.50;;;4.20;;
315;SDS011;14128;48.686;9.738;2022-09-11T15:30:09;4.53;;;4.23;;
315;SDS011;14128;48.686;9.738;2022-09-11T15:32:36;8.27;;;5.30;;
315;SDS011;14128;48.686;9.738;2022-09-11T15:35:05;5.27;;;4.97;;
315;SDS011;14128;48.686;9.738;2022-09-11T15:37:32;3.80;;;3.60;;
315;SDS011;14128;48.686;9.738;2022-09-11T15:39:59;3.70;;;3.50;;
315;SDS011;14128;48.686;9.738;2022-09-11T15:42:26;3.60;;;3.40;;
315;SDS011;14128;48.686;9.738;2022-09-11T15:44:52;4.90;;;4.30;;
315;SDS011;14128;48.686;9.738;2022-09-11T15:47:20;3.73;;;3.53;;
315;SDS011;14128;48.686;9.738;2022-09-11T15:49:47;3.93;;;3.73;;
315;SDS011;14128;48.686;9.738;2022-09-11T15:52:15;3.30;;;3.10;;
315;SDS011;14128;48.686;9.738;2022-09-11T15:54:43;4.23;;;3.53;;
315;SDS011;14128;48.686;9.738;2022-09-11T15:57:11;5.03;;;4.17;;